sensor_id;sensor_type;location;lat;lon;timestamp;temperature;humidity
3275;DHT22;1649;53.672;10.064;2022-11-18T00:00:26;1.60;99.90
3275;DHT22;1649;53.672;10.064;2022-11-18T00:02:51;1.50;99.90
3275;DHT22;1649;53.672;10.064;2022-11-18T00:05:17;1.50;99.90
3275;DHT22;1649;53.672;10.064;2022-11-18T00:07:42;1.50;99.90
3275;DHT22;1649;53.672;10.064;2022-11-18T00:10:08;1.50;99.90
3275;DHT22;1649;53.672;10.064;2022-11-18T00:12:33;1.60;99.90
3275;DHT22;1649;53.672;10.064;2022-11-18T00:15:17;1.60;99.90
3275;DHT22;1649;53.672;10.064;2022-11-18T00:17:43;1.60;99.90
3275;DHT22;1649;53.672;10.064;2022-11-18T00:20:08;1.60;99.90
3275;DHT22;1649;53.672;10.064;2022-11-18T00:22:34;1.60;99.90
3275;DHT22;1649;53.672;10.064;2022-11-18T00:25:00;1.70;99.90
3275;DHT22;1649;53.672;10.064;2022-11-18T00:27:29;1.70;99.90
3275;DHT22;1649;53.672;10.064;2022-11-18T00:29:55;1.70;99.90
3275;DHT22;1649;53.672;10.064;2022-11-18T00:32:20;1.70;99.90
3275;DHT22;1649;53.672;10.064;2022-11-18T00:34:46;1.60;99.90
3275;DHT22;1649;53.672;10.064;2022-11-18T00:37:11;1.60;99.90
3275;DHT22;1649;53.672;10.064;2022-11-18T00:39:37;1.60;99.90
3275;DHT22;1649;53.672;10.064;2022-11-18T00:42:02;1.60;99.90
3275;DHT22;1649;53.672;10.064;2022-11-18T00:44:47;1.60;99.90
3275;DHT22;1649;53.672;10.064;2022-11-18T00:47:12;1.50;99.90
3275;DHT22;1649;53.672;10.064;2022-11-18T00:49:38;1.50;99.90
3275;DHT22;1649;53.672;10.064;2022-11-18T00:52:03;1.50;99.90
3275;DHT22;1649;53.672;10.064;2022-11-18T00:54:29;1.60;99.90
3275;DHT22;1649;53.672;10.064;2022-11-18T00:56:55;1.50;99.90
3275;DHT22;1649;53.672;10.064;2022-11-18T00:59:20;1.50;99.90
3275;DHT22;1649;53.672;10.064;2022-11-18T01:01:46;1.50;99.90
3275;DHT22;1649;53.672;10.064;2022-11-18T01:04:13;1.50;99.90
3275;DHT22;1649;53.672;10.064;2022-11-18T01:06:38;1.50;99.90
3275;DHT22;1649;53.672;10.064;2022-11-18T01:09:04;1.50;99.90
3275;DHT22;1649;53.672;10.064;2022-11-18T01:11:29;1.50;99.90
3275;DHT22;1649;53.672;10.064;2022-11-18T01:14:13;1.50;99.90
3275;DHT22;1649;53.672;10.064;2022-11-18T01:16:39;1.50;99.90
3275;DHT22;1649;53.672;10.064;2022-11-18T01:19:04;1.40;99.90
3275;DHT22;1649;53.672;10.064;2022-11-18T01:21:30;1.40;99.90
3275;DHT22;1649;53.672;10.064;2022-11-18T01:23:55;1.50;99.90
3275;DHT22;1649;53.672;10.064;2022-11-18T01:26:21;1.50;99.90
3275;DHT22;1649;53.672;10.064;2022-11-18T01:28:46;1.50;99.90
3275;DHT22;1649;53.672;10.064;2022-11-18T01:31:14;1.40;99.90
3275;DHT22;1649;53.672;10.064;2022-11-18T01:33:41;1.40;99.90
3275;DHT22;1649;53.672;10.064;2022-11-18T01:36:19;1.40;99.90
3275;DHT22;1649;53.672;10.064;2022-11-18T01:38:45;1.50;99.90
3275;DHT22;1649;53.672;10.064;2022-11-18T01:41:11;1.50;99.90
3275;DHT22;1649;53.672;10.064;2022-11-18T01:43:57;1.50;99.90
3275;DHT22;1649;53.672;10.064;2022-11-18T01:46:25;1.50;99.90
3275;DHT22;1649;53.672;10.064;2022-11-18T01:48:56;1.40;99.90
3275;DHT22;1649;53.672;10.064;2022-11-18T01:51:27;1.40;99.90
3275;DHT22;1649;53.672;10.064;2022-11-18T01:54:01;1.40;99.90
3275;DHT22;1649;53.672;10.064;2022-11-18T01:56:50;1.40;99.90
3275;DHT22;1649;53.672;10.064;2022-11-18T01:59:19;1.40;99.90
3275;DHT22;1649;53.672;10.064;2022-11-18T02:01:47;1.30;99.90
3275;DHT22;1649;53.672;10.064;2022-11-18T02:04:13;1.40;99.90
3275;DHT22;1649;53.672;10.064;2022-11-18T02:06:39;1.40;99.90
3275;DHT22;1649;53.672;10.064;2022-11-18T02:09:05;1.30;99.90
3275;DHT22;1649;53.672;10.064;2022-11-18T02:11:31;1.30;99.90
3275;DHT22;1649;53.672;10.064;2022-11-18T02:14:17;1.30;99.90
3275;DHT22;1649;53.672;10.064;2022-11-18T02:20:29;1.40;99.90
3275;DHT22;1649;53.672;10.064;2022-11-18T02:29:07;1.40;99.90
3275;DHT22;1649;53.672;10.064;2022-11-18T02:31:45;1.40;99.90
3275;DHT22;1649;53.672;10.064;2022-11-18T02:36:59;1.30;99.90
3275;DHT22;1649;53.672;10.064;2022-11-18T02:39:36;1.20;99.90
3275;DHT22;1649;53.672;10.064;2022-11-18T02:42:06;1.30;99.90
3275;DHT22;1649;53.672;10.064;2022-11-18T02:44:36;1.40;99.90
3275;DHT22;1649;53.672;10.064;2022-11-18T02:47:05;1.40;99.90
3275;DHT22;1649;53.672;10.064;2022-11-18T02:49:39;1.50;99.90
3275;DHT22;1649;53.672;10.064;2022-11-18T02:52:07;1.50;99.90
3275;DHT22;1649;53.672;10.064;2022-11-18T02:54:35;1.40;99.90
3275;DHT22;1649;53.672;10.064;2022-11-18T02:57:03;1.40;99.90
3275;DHT22;1649;53.672;10.064;2022-11-18T02:59:29;1.40;99.90
3275;DHT22;1649;53.672;10.064;2022-11-18T03:01:55;1.40;99.90
3275;DHT22;1649;53.672;10.064;2022-11-18T03:07:09;1.30;99.90
3275;DHT22;1649;53.672;10.064;2022-11-18T03:09:38;1.30;99.90
3275;DHT22;1649;53.672;10.064;2022-11-18T03:17:54;1.20;99.90
3275;DHT22;1649;53.672;10.064;2022-11-18T03:20:37;1.30;99.90
3275;DHT22;1649;53.672;10.064;2022-11-18T03:23:14;1.30;99.90
3275;DHT22;1649;53.672;10.064;2022-11-18T03:25:54;1.30;99.90
3275;DHT22;1649;53.672;10.064;2022-11-18T03:28:32;1.30;99.90
3275;DHT22;1649;53.672;10.064;2022-11-18T03:33:59;1.30;99.90
3275;DHT22;1649;53.672;10.064;2022-11-18T03:36:37;1.30;99.90
3275;DHT22;1649;53.672;10.064;2022-11-18T03:39:06;1.20;99.90
3275;DHT22;1649;53.672;10.064;2022-11-18T03:41:37;1.30;99.90
3275;DHT22;1649;53.672;10.064;2022-11-18T03:44:09;1.30;99.90
3275;DHT22;1649;53.672;10.064;2022-11-18T03:46:51;1.30;99.90
3275;DHT22;1649;53.672;10.064;2022-11-18T03:49:30;1.40;99.90
3275;DHT22;1649;53.672;10.064;2022-11-18T03:52:05;1.40;99.90
3275;DHT22;1649;53.672;10.064;2022-11-18T03:54:33;1.30;99.90
3275;DHT22;1649;53.672;10.064;2022-11-18T03:57:07;1.30;99.90
3275;DHT22;1649;53.672;10.064;2022-11-18T03:59:58;1.30;99.90
3275;DHT22;1649;53.672;10.064;2022-11-18T04:02:28;1.30;99.90
3275;DHT22;1649;53.672;10.064;2022-11-18T04:04:56;1.30;99.90
3275;DHT22;1649;53.672;10.064;2022-11-18T04:10:33;1.30;99.90
3275;DHT22;1649;53.672;10.064;2022-11-18T04:13:19;1.20;99.90
3275;DHT22;1649;53.672;10.064;2022-11-18T04:15:46;1.30;99.90
3275;DHT22;1649;53.672;10.064;2022-11-18T04:18:12;1.40;99.90
3275;DHT22;1649;53.672;10.064;2022-11-18T04:20:38;1.30;99.90
3275;DHT22;1649;53.672;10.064;2022-11-18T04:23:04;1.30;99.90
3275;DHT22;1649;53.672;10.064;2022-11-18T04:25:30;1.20;99.90
3275;DHT22;1649;53.672;10.064;2022-11-18T04:27:55;1.20;99.90
3275;DHT22;1649;53.672;10.064;2022-11-18T04:30:20;1.30;99.90
3275;DHT22;1649;53.672;10.064;2022-11-18T04:32:46;1.30;99.90
3275;DHT22;1649;53.672;10.064;2022-11-18T04:35:12;1.20;99.90
3275;DHT22;1649;53.672;10.064;2022-11-18T04:37:37;1.30;99.90
3275;DHT22;1649;53.672;10.064;2022-11-18T04:40:03;1.20;99.90
3275;DHT22;1649;53.672;10.064;2022-11-18T04:42:29;1.30;99.90
3275;DHT22;1649;53.672;10.064;2022-11-18T04:44:55;1.20;99.90
3275;DHT22;1649;53.672;10.064;2022-11-18T04:47:20;1.20;99.90
3275;DHT22;1649;53.672;10.064;2022-11-18T04:49:46;1.20;99.90
3275;DHT22;1649;53.672;10.064;2022-11-18T04:52:11;1.20;99.90
3275;DHT22;1649;53.672;10.064;2022-11-18T04:54:37;1.10;99.90
3275;DHT22;1649;53.672;10.064;2022-11-18T04:57:03;1.00;99.90
3275;DHT22;1649;53.672;10.064;2022-11-18T04:59:29;1.00;99.90
3275;DHT22;1649;53.672;10.064;2022-11-18T05:01:56;1.10;99.90
3275;DHT22;1649;53.672;10.064;2022-11-18T05:04:24;1.10;99.90
3275;DHT22;1649;53.672;10.064;2022-11-18T05:06:49;1.10;99.90
3275;DHT22;1649;53.672;10.064;2022-11-18T05:09:16;1.10;99.90
3275;DHT22;1649;53.672;10.064;2022-11-18T05:11:41;1.20;99.90
3275;DHT22;1649;53.672;10.064;2022-11-18T05:14:27;1.20;99.90
3275;DHT22;1649;53.672;10.064;2022-11-18T05:16:53;1.10;99.90
3275;DHT22;1649;53.672;10.064;2022-11-18T05:19:19;1.10;99.90
3275;DHT22;1649;53.672;10.064;2022-11-18T05:21:45;1.10;99.90
3275;DHT22;1649;53.672;10.064;2022-11-18T05:24:10;1.10;99.90
3275;DHT22;1649;53.672;10.064;2022-11-18T05:26:36;1.10;99.90
3275;DHT22;1649;53.672;10.064;2022-11-18T05:29:01;1.10;99.90
3275;DHT22;1649;53.672;10.064;2022-11-18T05:31:27;1.10;99.90
3275;DHT22;1649;53.672;10.064;2022-11-18T05:33:52;1.10;99.90
3275;DHT22;1649;53.672;10.064;2022-11-18T05:36:19;1.00;99.90
3275;DHT22;1649;53.672;10.064;2022-11-18T05:38:45;1.00;99.90
3275;DHT22;1649;53.672;10.064;2022-11-18T05:41:11;1.10;99.90
3275;DHT22;1649;53.672;10.064;2022-11-18T05:43:57;1.10;99.90
3275;DHT22;1649;53.672;10.064;2022-11-18T05:46:23;1.20;99.90
3275;DHT22;1649;53.672;10.064;2022-11-18T05:48:49;1.30;99.90
3275;DHT22;1649;53.672;10.064;2022-11-18T05:51:14;1.20;99.90
3275;DHT22;1649;53.672;10.064;2022-11-18T05:53:40;1.10;99.90
3275;DHT22;1649;53.672;10.064;2022-11-18T05:56:22;1.00;99.90
3275;DHT22;1649;53.672;10.064;2022-11-18T05:58:49;1.00;99.90
3275;DHT22;1649;53.672;10.064;2022-11-18T06:01:24;1.00;99.90
3275;DHT22;1649;53.672;10.064;2022-11-18T06:03:51;1.10;99.90
3275;DHT22;1649;53.672;10.064;2022-11-18T06:06:18;1.00;99.90
3275;DHT22;1649;53.672;10.064;2022-11-18T06:08:51;1.00;99.90
3275;DHT22;1649;53.672;10.064;2022-11-18T06:11:20;1.00;99.90
3275;DHT22;1649;53.672;10.064;2022-11-18T06:16:56;1.10;99.90
3275;DHT22;1649;53.672;10.064;2022-11-18T06:19:24;1.00;99.90
3275;DHT22;1649;53.672;10.064;2022-11-18T06:21:50;0.90;99.90
3275;DHT22;1649;53.672;10.064;2022-11-18T06:24:16;0.90;99.90
3275;DHT22;1649;53.672;10.064;2022-11-18T06:26:42;1.00;99.90
3275;DHT22;1649;53.672;10.064;2022-11-18T06:29:10;1.00;99.90
3275;DHT22;1649;53.672;10.064;2022-11-18T06:31:37;1.10;99.90
3275;DHT22;1649;53.672;10.064;2022-11-18T06:34:02;1.00;99.90
3275;DHT22;1649;53.672;10.064;2022-11-18T06:36:28;0.90;99.90
3275;DHT22;1649;53.672;10.064;2022-11-18T06:38:53;0.90;99.90
3275;DHT22;1649;53.672;10.064;2022-11-18T06:41:19;1.00;99.90
3275;DHT22;1649;53.672;10.064;2022-11-18T06:43:44;0.90;99.90
3275;DHT22;1649;53.672;10.064;2022-11-18T06:46:12;0.90;99.90
3275;DHT22;1649;53.672;10.064;2022-11-18T06:48:57;0.80;99.90
3275;DHT22;1649;53.672;10.064;2022-11-18T06:51:23;0.80;99.90
3275;DHT22;1649;53.672;10.064;2022-11-18T06:53:49;0.80;99.90
3275;DHT22;1649;53.672;10.064;2022-11-18T06:56:15;0.80;99.90
3275;DHT22;1649;53.672;10.064;2022-11-18T06:58:42;0.80;99.90
3275;DHT22;1649;53.672;10.064;2022-11-18T07:01:15;0.80;99.90
3275;DHT22;1649;53.672;10.064;2022-11-18T07:03:42;1.00;99.90
3275;DHT22;1649;53.672;10.064;2022-11-18T07:06:11;1.00;99.90
3275;DHT22;1649;53.672;10.064;2022-11-18T07:08:38;1.00;99.90
3275;DHT22;1649;53.672;10.064;2022-11-18T07:11:07;0.90;99.90
3275;DHT22;1649;53.672;10.064;2022-11-18T07:13:33;1.00;99.90
3275;DHT22;1649;53.672;10.064;2022-11-18T07:16:16;1.00;99.90
3275;DHT22;1649;53.672;10.064;2022-11-18T07:18:43;0.90;99.90
3275;DHT22;1649;53.672;10.064;2022-11-18T07:21:20;0.90;99.90
3275;DHT22;1649;53.672;10.064;2022-11-18T07:23:46;1.00;99.90
3275;DHT22;1649;53.672;10.064;2022-11-18T07:26:12;1.00;99.90
3275;DHT22;1649;53.672;10.064;2022-11-18T07:28:38;1.00;99.90
3275;DHT22;1649;53.672;10.064;2022-11-18T07:31:15;1.10;99.90
3275;DHT22;1649;53.672;10.064;2022-11-18T07:33:42;1.10;99.90
3275;DHT22;1649;53.672;10.064;2022-11-18T07:38:35;1.00;99.90
3275;DHT22;1649;53.672;10.064;2022-11-18T07:41:11;1.10;99.90
3275;DHT22;1649;53.672;10.064;2022-11-18T07:43:37;1.10;99.90
3275;DHT22;1649;53.672;10.064;2022-11-18T07:48:38;1.10;99.90
3275;DHT22;1649;53.672;10.064;2022-11-18T07:51:04;1.00;99.90
3275;DHT22;1649;53.672;10.064;2022-11-18T07:53:30;0.90;99.90
3275;DHT22;1649;53.672;10.064;2022-11-18T07:55:56;1.00;99.90
3275;DHT22;1649;53.672;10.064;2022-11-18T07:58:21;1.10;99.90
3275;DHT22;1649;53.672;10.064;2022-11-18T08:00:47;1.00;99.90
3275;DHT22;1649;53.672;10.064;2022-11-18T08:03:12;1.10;99.90
3275;DHT22;1649;53.672;10.064;2022-11-18T08:05:38;1.10;99.90
3275;DHT22;1649;53.672;10.064;2022-11-18T08:08:03;1.00;99.90
3275;DHT22;1649;53.672;10.064;2022-11-18T08:10:29;1.00;99.90
3275;DHT22;1649;53.672;10.064;2022-11-18T08:12:55;0.90;99.90
3275;DHT22;1649;53.672;10.064;2022-11-18T08:15:21;1.10;99.90
3275;DHT22;1649;53.672;10.064;2022-11-18T08:17:47;1.10;99.90
3275;DHT22;1649;53.672;10.064;2022-11-18T08:20:12;1.10;99.90
3275;DHT22;1649;53.672;10.064;2022-11-18T08:22:39;1.20;99.90
3275;DHT22;1649;53.672;10.064;2022-11-18T08:25:05;1.20;99.90
3275;DHT22;1649;53.672;10.064;2022-11-18T08:27:31;1.20;99.90
3275;DHT22;1649;53.672;10.064;2022-11-18T08:29:56;1.20;99.90
3275;DHT22;1649;53.672;10.064;2022-11-18T08:32:22;1.10;99.90
3275;DHT22;1649;53.672;10.064;2022-11-18T08:34:49;1.20;99.90
3275;DHT22;1649;53.672;10.064;2022-11-18T08:37:15;1.10;99.90
3275;DHT22;1649;53.672;10.064;2022-11-18T08:39:40;1.10;99.90
3275;DHT22;1649;53.672;10.064;2022-11-18T08:42:06;1.20;99.90
3275;DHT22;1649;53.672;10.064;2022-11-18T08:44:31;1.10;99.90
3275;DHT22;1649;53.672;10.064;2022-11-18T08:47:00;1.10;99.90
3275;DHT22;1649;53.672;10.064;2022-11-18T08:49:25;1.10;99.90
3275;DHT22;1649;53.672;10.064;2022-11-18T08:51:51;1.20;99.90
3275;DHT22;1649;53.672;10.064;2022-11-18T08:54:16;1.10;99.90
3275;DHT22;1649;53.672;10.064;2022-11-18T08:56:42;1.10;99.90
3275;DHT22;1649;53.672;10.064;2022-11-18T08:59:07;1.10;99.90
3275;DHT22;1649;53.672;10.064;2022-11-18T09:01:35;1.20;99.90
3275;DHT22;1649;53.672;10.064;2022-11-18T09:04:02;1.20;99.90
3275;DHT22;1649;53.672;10.064;2022-11-18T09:06:28;1.20;99.90
3275;DHT22;1649;53.672;10.064;2022-11-18T09:08:53;1.20;99.90
3275;DHT22;1649;53.672;10.064;2022-11-18T09:11:21;1.30;99.90
3275;DHT22;1649;53.672;10.064;2022-11-18T09:13:47;1.30;99.90
3275;DHT22;1649;53.672;10.064;2022-11-18T09:16:16;1.40;99.90
3275;DHT22;1649;53.672;10.064;2022-11-18T09:18:41;1.40;99.90
3275;DHT22;1649;53.672;10.064;2022-11-18T09:21:08;1.50;99.90
3275;DHT22;1649;53.672;10.064;2022-11-18T09:23:35;1.50;99.90
3275;DHT22;1649;53.672;10.064;2022-11-18T09:26:12;1.50;99.90
3275;DHT22;1649;53.672;10.064;2022-11-18T09:28:38;1.40;99.90
3275;DHT22;1649;53.672;10.064;2022-11-18T09:31:06;1.40;99.90
3275;DHT22;1649;53.672;10.064;2022-11-18T09:33:32;1.50;99.90
3275;DHT22;1649;53.672;10.064;2022-11-18T09:35:58;1.50;99.90
3275;DHT22;1649;53.672;10.064;2022-11-18T09:38:23;1.50;99.90
3275;DHT22;1649;53.672;10.064;2022-11-18T09:43:22;1.60;99.90
3275;DHT22;1649;53.672;10.064;2022-11-18T09:45:56;1.70;99.90
3275;DHT22;1649;53.672;10.064;2022-11-18T09:48:23;1.70;99.90
3275;DHT22;1649;53.672;10.064;2022-11-18T09:51:10;1.80;99.90
3275;DHT22;1649;53.672;10.064;2022-11-18T09:53:40;1.80;99.90
3275;DHT22;1649;53.672;10.064;2022-11-18T09:56:13;1.90;99.90
3275;DHT22;1649;53.672;10.064;2022-11-18T09:58:39;1.90;99.90
3275;DHT22;1649;53.672;10.064;2022-11-18T10:01:11;2.00;99.90
3275;DHT22;1649;53.672;10.064;2022-11-18T10:03:38;2.00;99.90
3275;DHT22;1649;53.672;10.064;2022-11-18T10:06:11;1.80;99.90
3275;DHT22;1649;53.672;10.064;2022-11-18T10:11:17;1.90;99.90
3275;DHT22;1649;53.672;10.064;2022-11-18T10:16:40;2.00;99.90
3275;DHT22;1649;53.672;10.064;2022-11-18T10:19:18;2.00;99.90
3275;DHT22;1649;53.672;10.064;2022-11-18T10:24:18;2.00;99.90
3275;DHT22;1649;53.672;10.064;2022-11-18T10:26:44;1.90;99.90
3275;DHT22;1649;53.672;10.064;2022-11-18T10:29:10;2.00;99.90
3275;DHT22;1649;53.672;10.064;2022-11-18T10:31:44;1.90;99.90
3275;DHT22;1649;53.672;10.064;2022-11-18T10:34:18;1.90;99.90
3275;DHT22;1649;53.672;10.064;2022-11-18T10:36:58;1.80;99.90
3275;DHT22;1649;53.672;10.064;2022-11-18T10:39:24;1.80;99.90
3275;DHT22;1649;53.672;10.064;2022-11-18T10:41:57;1.70;99.90
3275;DHT22;1649;53.672;10.064;2022-11-18T10:47:28;1.70;99.90
3275;DHT22;1649;53.672;10.064;2022-11-18T10:49:56;1.80;99.90
3275;DHT22;1649;53.672;10.064;2022-11-18T10:52:22;1.80;99.90
3275;DHT22;1649;53.672;10.064;2022-11-18T10:55:17;1.80;99.90
3275;DHT22;1649;53.672;10.064;2022-11-18T10:57:44;1.70;99.90
3275;DHT22;1649;53.672;10.064;2022-11-18T11:03:24;1.80;99.90
3275;DHT22;1649;53.672;10.064;2022-11-18T11:08:49;2.00;99.90
3275;DHT22;1649;53.672;10.064;2022-11-18T11:11:36;2.00;99.90
3275;DHT22;1649;53.672;10.064;2022-11-18T11:14:10;2.20;99.90
3275;DHT22;1649;53.672;10.064;2022-11-18T11:16:59;2.20;99.90
3275;DHT22;1649;53.672;10.064;2022-11-18T11:19:41;2.30;99.90
3275;DHT22;1649;53.672;10.064;2022-11-18T11:22:10;2.30;99.90
3275;DHT22;1649;53.672;10.064;2022-11-18T11:24:36;2.30;99.90
3275;DHT22;1649;53.672;10.064;2022-11-18T11:27:36;2.40;99.90
3275;DHT22;1649;53.672;10.064;2022-11-18T11:30:18;2.40;99.90
3275;DHT22;1649;53.672;10.064;2022-11-18T11:35:33;2.60;99.90
3275;DHT22;1649;53.672;10.064;2022-11-18T11:38:03;2.60;99.90
3275;DHT22;1649;53.672;10.064;2022-11-18T11:40:42;2.60;99.90
3275;DHT22;1649;53.672;10.064;2022-11-18T11:43:29;2.60;99.90
3275;DHT22;1649;53.672;10.064;2022-11-18T11:48:57;2.70;99.90
3275;DHT22;1649;53.672;10.064;2022-11-18T11:51:39;2.70;99.90
3275;DHT22;1649;53.672;10.064;2022-11-18T11:57:03;2.70;99.90
3275;DHT22;1649;53.672;10.064;2022-11-18T12:05:02;2.60;99.90
3275;DHT22;1649;53.672;10.064;2022-11-18T12:07:44;2.50;99.90
3275;DHT22;1649;53.672;10.064;2022-11-18T12:10:27;2.50;99.90
3275;DHT22;1649;53.672;10.064;2022-11-18T12:24:27;2.30;99.90
3275;DHT22;1649;53.672;10.064;2022-11-18T12:32:36;2.30;99.90
3275;DHT22;1649;53.672;10.064;2022-11-18T12:40:45;2.40;99.90
3275;DHT22;1649;53.672;10.064;2022-11-18T12:51:47;2.30;99.90
3275;DHT22;1649;53.672;10.064;2022-11-18T12:56:50;2.30;99.90
3275;DHT22;1649;53.672;10.064;2022-11-18T12:59:25;2.30;99.90
3275;DHT22;1649;53.672;10.064;2022-11-18T13:02:01;2.20;99.90
3275;DHT22;1649;53.672;10.064;2022-11-18T13:04:27;2.10;99.90
3275;DHT22;1649;53.672;10.064;2022-11-18T13:06:52;2.10;99.90
3275;DHT22;1649;53.672;10.064;2022-11-18T13:09:24;2.10;99.90
3275;DHT22;1649;53.672;10.064;2022-11-18T13:11:55;2.00;99.90
3275;DHT22;1649;53.672;10.064;2022-11-18T13:14:31;2.10;99.90
3275;DHT22;1649;53.672;10.064;2022-11-18T13:17:36;2.00;99.90
3275;DHT22;1649;53.672;10.064;2022-11-18T13:22:53;2.30;99.90
3275;DHT22;1649;53.672;10.064;2022-11-18T13:25:38;2.40;99.90
3275;DHT22;1649;53.672;10.064;2022-11-18T13:30:48;2.50;99.90
3275;DHT22;1649;53.672;10.064;2022-11-18T13:33:15;2.60;99.90
3275;DHT22;1649;53.672;10.064;2022-11-18T13:35:41;2.60;99.90
3275;DHT22;1649;53.672;10.064;2022-11-18T13:38:18;2.70;99.90
3275;DHT22;1649;53.672;10.064;2022-11-18T13:40:45;2.70;99.90
3275;DHT22;1649;53.672;10.064;2022-11-18T13:43:31;2.80;99.90
3275;DHT22;1649;53.672;10.064;2022-11-18T13:45:59;2.70;99.90
3275;DHT22;1649;53.672;10.064;2022-11-18T13:48:26;2.70;99.90
3275;DHT22;1649;53.672;10.064;2022-11-18T13:50:54;2.70;99.90
3275;DHT22;1649;53.672;10.064;2022-11-18T13:53:30;2.70;99.90
3275;DHT22;1649;53.672;10.064;2022-11-18T13:56:19;2.60;99.90
3275;DHT22;1649;53.672;10.064;2022-11-18T14:01:19;2.60;99.90
3275;DHT22;1649;53.672;10.064;2022-11-18T14:03:56;2.70;99.90
3275;DHT22;1649;53.672;10.064;2022-11-18T14:06:43;2.70;99.90
3275;DHT22;1649;53.672;10.064;2022-11-18T14:09:16;2.80;99.90
3275;DHT22;1649;53.672;10.064;2022-11-18T14:11:45;2.80;99.90
3275;DHT22;1649;53.672;10.064;2022-11-18T14:14:47;2.80;99.90
3275;DHT22;1649;53.672;10.064;2022-11-18T14:17:25;2.80;99.90
3275;DHT22;1649;53.672;10.064;2022-11-18T14:19:58;2.80;99.90
3275;DHT22;1649;53.672;10.064;2022-11-18T14:22:26;2.70;99.90
3275;DHT22;1649;53.672;10.064;2022-11-18T14:24:59;2.70;99.90
3275;DHT22;1649;53.672;10.064;2022-11-18T14:27:44;2.70;99.90
3275;DHT22;1649;53.672;10.064;2022-11-18T14:35:46;2.50;99.90
3275;DHT22;1649;53.672;10.064;2022-11-18T14:40:57;2.40;99.90
3275;DHT22;1649;53.672;10.064;2022-11-18T14:43:24;2.40;99.90
3275;DHT22;1649;53.672;10.064;2022-11-18T14:45:52;2.30;99.90
3275;DHT22;1649;53.672;10.064;2022-11-18T14:48:20;2.30;99.90
3275;DHT22;1649;53.672;10.064;2022-11-18T14:50:45;2.20;99.90
3275;DHT22;1649;53.672;10.064;2022-11-18T14:53:12;2.10;99.90
3275;DHT22;1649;53.672;10.064;2022-11-18T14:55:39;2.10;99.90
3275;DHT22;1649;53.672;10.064;2022-11-18T14:58:04;2.10;99.90
3275;DHT22;1649;53.672;10.064;2022-11-18T15:00:30;2.10;99.90
3275;DHT22;1649;53.672;10.064;2022-11-18T15:02:55;2.10;99.90
3275;DHT22;1649;53.672;10.064;2022-11-18T15:05:21;2.00;99.90
3275;DHT22;1649;53.672;10.064;2022-11-18T15:07:46;2.00;99.90
3275;DHT22;1649;53.672;10.064;2022-11-18T15:10:14;2.10;99.90
3275;DHT22;1649;53.672;10.064;2022-11-18T15:12:39;2.10;99.90
3275;DHT22;1649;53.672;10.064;2022-11-18T15:15:05;2.10;99.90
3275;DHT22;1649;53.672;10.064;2022-11-18T15:17:31;1.90;99.90
3275;DHT22;1649;53.672;10.064;2022-11-18T15:19:56;1.80;99.90
3275;DHT22;1649;53.672;10.064;2022-11-18T15:22:22;1.70;99.90
3275;DHT22;1649;53.672;10.064;2022-11-18T15:24:48;1.70;99.90
3275;DHT22;1649;53.672;10.064;2022-11-18T15:27:13;1.70;99.90
3275;DHT22;1649;53.672;10.064;2022-11-18T15:29:39;1.70;99.90
3275;DHT22;1649;53.672;10.064;2022-11-18T15:32:04;1.70;99.90
3275;DHT22;1649;53.672;10.064;2022-11-18T15:34:30;1.70;99.90
3275;DHT22;1649;53.672;10.064;2022-11-18T15:36:56;1.60;99.90
3275;DHT22;1649;53.672;10.064;2022-11-18T15:39:22;1.60;99.90
3275;DHT22;1649;53.672;10.064;2022-11-18T15:41:47;1.70;99.90
3275;DHT22;1649;53.672;10.064;2022-11-18T15:44:13;1.70;99.90
3275;DHT22;1649;53.672;10.064;2022-11-18T15:46:38;1.70;99.90
3275;DHT22;1649;53.672;10.064;2022-11-18T15:49:04;1.60;99.90
3275;DHT22;1649;53.672;10.064;2022-11-18T15:51:30;1.70;99.90
3275;DHT22;1649;53.672;10.064;2022-11-18T15:53:55;1.60;99.90
3275;DHT22;1649;53.672;10.064;2022-11-18T15:56:28;1.60;99.90
3275;DHT22;1649;53.672;10.064;2022-11-18T15:58:57;1.40;99.90
3275;DHT22;1649;53.672;10.064;2022-11-18T16:01:28;1.20;99.90
3275;DHT22;1649;53.672;10.064;2022-11-18T16:03:54;1.20;99.90
3275;DHT22;1649;53.672;10.064;2022-11-18T16:06:20;1.30;99.90
3275;DHT22;1649;53.672;10.064;2022-11-18T16:08:46;1.30;99.90
3275;DHT22;1649;53.672;10.064;2022-11-18T16:11:13;1.30;99.90
3275;DHT22;1649;53.672;10.064;2022-11-18T16:14:04;1.30;99.90
3275;DHT22;1649;53.672;10.064;2022-11-18T16:16:31;1.30;99.90
3275;DHT22;1649;53.672;10.064;2022-11-18T16:19:01;1.20;99.90
3275;DHT22;1649;53.672;10.064;2022-11-18T16:21:28;1.30;99.90
3275;DHT22;1649;53.672;10.064;2022-11-18T16:23:58;1.40;99.90
3275;DHT22;1649;53.672;10.064;2022-11-18T16:26:25;1.50;99.90
3275;DHT22;1649;53.672;10.064;2022-11-18T16:28:51;1.40;99.90
3275;DHT22;1649;53.672;10.064;2022-11-18T16:31:17;1.40;99.90
3275;DHT22;1649;53.672;10.064;2022-11-18T16:34:13;1.40;99.90
3275;DHT22;1649;53.672;10.064;2022-11-18T16:36:41;1.20;99.90
3275;DHT22;1649;53.672;10.064;2022-11-18T16:39:12;1.20;99.90
3275;DHT22;1649;53.672;10.064;2022-11-18T16:41:38;1.20;99.90
3275;DHT22;1649;53.672;10.064;2022-11-18T16:44:14;1.30;99.90
3275;DHT22;1649;53.672;10.064;2022-11-18T16:46:45;1.20;99.90
3275;DHT22;1649;53.672;10.064;2022-11-18T16:49:12;1.20;99.90
3275;DHT22;1649;53.672;10.064;2022-11-18T16:51:42;1.20;99.90
3275;DHT22;1649;53.672;10.064;2022-11-18T16:54:15;1.20;99.90
3275;DHT22;1649;53.672;10.064;2022-11-18T16:56:44;1.30;99.90
3275;DHT22;1649;53.672;10.064;2022-11-18T16:59:12;1.20;99.90
3275;DHT22;1649;53.672;10.064;2022-11-18T17:01:38;1.20;99.90
3275;DHT22;1649;53.672;10.064;2022-11-18T17:04:04;1.10;99.90
3275;DHT22;1649;53.672;10.064;2022-11-18T17:06:30;1.20;99.90
3275;DHT22;1649;53.672;10.064;2022-11-18T17:08:57;1.10;99.90
3275;DHT22;1649;53.672;10.064;2022-11-18T17:11:23;0.80;99.90
3275;DHT22;1649;53.672;10.064;2022-11-18T17:13:49;0.80;99.90
3275;DHT22;1649;53.672;10.064;2022-11-18T17:16:17;0.80;99.90
3275;DHT22;1649;53.672;10.064;2022-11-18T17:18:43;0.80;99.90
3275;DHT22;1649;53.672;10.064;2022-11-18T17:21:12;0.90;99.90
3275;DHT22;1649;53.672;10.064;2022-11-18T17:23:39;0.90;99.90
3275;DHT22;1649;53.672;10.064;2022-11-18T17:26:06;1.00;99.90
3275;DHT22;1649;53.672;10.064;2022-11-18T17:28:33;1.00;99.90
3275;DHT22;1649;53.672;10.064;2022-11-18T17:31:10;1.00;99.90
3275;DHT22;1649;53.672;10.064;2022-11-18T17:33:36;1.00;99.90
3275;DHT22;1649;53.672;10.064;2022-11-18T17:36:07;1.00;99.90
3275;DHT22;1649;53.672;10.064;2022-11-18T17:38:34;1.00;99.90
3275;DHT22;1649;53.672;10.064;2022-11-18T17:41:00;0.90;99.90
3275;DHT22;1649;53.672;10.064;2022-11-18T17:43:26;0.90;99.90
3275;DHT22;1649;53.672;10.064;2022-11-18T17:45:53;1.00;99.90
3275;DHT22;1649;53.672;10.064;2022-11-18T17:48:20;0.90;99.90
3275;DHT22;1649;53.672;10.064;2022-11-18T17:50:46;0.80;99.90
3275;DHT22;1649;53.672;10.064;2022-11-18T17:53:13;0.80;99.90
3275;DHT22;1649;53.672;10.064;2022-11-18T17:55:38;0.60;99.90
3275;DHT22;1649;53.672;10.064;2022-11-18T17:58:04;0.50;99.90
3275;DHT22;1649;53.672;10.064;2022-11-18T18:00:29;0.50;99.90
3275;DHT22;1649;53.672;10.064;2022-11-18T18:02:59;0.60;99.90
3275;DHT22;1649;53.672;10.064;2022-11-18T18:05:25;0.50;99.90
3275;DHT22;1649;53.672;10.064;2022-11-18T18:07:50;0.50;99.90
3275;DHT22;1649;53.672;10.064;2022-11-18T18:10:17;0.50;99.90
3275;DHT22;1649;53.672;10.064;2022-11-18T18:12:44;0.50;99.90
3275;DHT22;1649;53.672;10.064;2022-11-18T18:15:28;0.50;99.90